createdAt,value
2022-12-15T00:00:07.156Z,97263.20
2022-12-15T00:05:28.124Z,97272.72
2022-12-15T00:10:48.709Z,97274.13
2022-12-15T00:16:10.574Z,97272.13
2022-12-15T00:21:32.547Z,97276.70
2022-12-15T00:26:53.145Z,97282.73
2022-12-15T00:32:14.265Z,97289.42
2022-12-15T00:37:34.894Z,97298.06
2022-12-15T00:42:36.670Z,97302.73
2022-12-15T00:47:38.511Z,97309.20
2022-12-15T00:52:59.246Z,97317.85
2022-12-15T00:58:19.636Z,97323.17
2022-12-15T01:03:42.647Z,97320.27
2022-12-15T01:09:03.589Z,97321.11
2022-12-15T01:14:24.197Z,97324.89
2022-12-15T01:19:44.828Z,97330.85
2022-12-15T01:24:46.759Z,97332.73
2022-12-15T01:29:48.523Z,97335.89
2022-12-15T01:34:50.285Z,97342.46
2022-12-15T01:40:10.845Z,97348.95
2022-12-15T01:45:24.691Z,97353.77
2022-12-15T01:50:28.797Z,97362.13
2022-12-15T01:55:32.141Z,97375.05
2022-12-15T02:00:34.551Z,97376.84
2022-12-15T02:05:36.992Z,97375.31
2022-12-15T02:11:13.527Z,97375.56
2022-12-15T02:16:28.326Z,97380.42
2022-12-15T02:21:42.191Z,97376.80
2022-12-15T02:26:53.015Z,97386.71
2022-12-15T02:32:07.806Z,97394.34
2022-12-15T02:37:23.082Z,97399.02
2022-12-15T02:42:28.316Z,97403.61
2022-12-15T02:47:54.869Z,97414.20
2022-12-15T02:53:24.485Z,97422.48
2022-12-15T02:58:45.735Z,97420.40
2022-12-15T03:03:49.947Z,97421.19
2022-12-15T03:08:51.690Z,97430.40
2022-12-15T03:13:54.339Z,97445.86
2022-12-15T03:18:56.059Z,97446.52
2022-12-15T03:23:57.905Z,97451.31
2022-12-15T03:29:00.494Z,97462.10
2022-12-15T03:34:02.350Z,97458.28
2022-12-15T03:39:04.640Z,97463.53
2022-12-15T03:44:06.474Z,97470.28
2022-12-15T03:49:08.286Z,97482.50
2022-12-15T03:54:12.551Z,97491.15
2022-12-15T03:59:14.396Z,97497.40
2022-12-15T04:04:16.225Z,97498.56
2022-12-15T04:09:19.453Z,97502.76
2022-12-15T04:14:32.613Z,97509.73
2022-12-15T04:19:53.249Z,97516.56
2022-12-15T04:25:13.687Z,97527.73
2022-12-15T04:30:34.507Z,97532.89
2022-12-15T04:35:55.160Z,97536.77
2022-12-15T04:41:15.782Z,97541.59
2022-12-15T04:46:36.409Z,97545.02
2022-12-15T04:51:57.041Z,97551.59
2022-12-15T04:57:17.627Z,97558.98
2022-12-15T05:02:38.329Z,97569.81
2022-12-15T05:07:59.103Z,97578.75
2022-12-15T05:13:24.900Z,97595.84
2022-12-15T05:18:45.281Z,97610.21
2022-12-15T05:24:05.820Z,97622.27
2022-12-15T05:29:26.411Z,97616.36
2022-12-15T05:34:31.174Z,97621.72
2022-12-15T05:39:33.152Z,97624.06
2022-12-15T05:44:34.943Z,97639.67
2022-12-15T05:49:36.768Z,97649.36
2022-12-15T05:54:38.531Z,97658.38
2022-12-15T05:59:40.323Z,97665.73
2022-12-15T06:04:42.092Z,97674.10
2022-12-15T06:09:43.933Z,97691.21
2022-12-15T06:14:45.726Z,97696.01
2022-12-15T06:19:51.566Z,97718.92
2022-12-15T06:24:53.340Z,97713.73
2022-12-15T06:29:55.186Z,97716.25
2022-12-15T06:34:57.423Z,97718.92
2022-12-15T06:39:59.175Z,97724.44
2022-12-15T06:45:00.892Z,97732.56
2022-12-15T06:50:02.755Z,97731.83
2022-12-15T06:55:04.926Z,97751.05
2022-12-15T07:00:07.540Z,97778.25
2022-12-15T07:05:09.535Z,97785.31
2022-12-15T07:10:11.967Z,97804.71
2022-12-15T07:15:13.785Z,97805.94
2022-12-15T07:20:15.574Z,97807.00
2022-12-15T07:25:17.751Z,97825.33
2022-12-15T07:30:19.536Z,97825.60
2022-12-15T07:35:21.884Z,97832.77
2022-12-15T07:40:23.794Z,97838.63
2022-12-15T07:45:25.672Z,97847.08
2022-12-15T07:50:29.060Z,97851.49
2022-12-15T07:55:57.104Z,97862.31
2022-12-15T08:00:53.363Z,97859.56
2022-12-15T08:06:02.038Z,97872.77
2022-12-15T08:11:11.239Z,97882.32
2022-12-15T08:16:13.081Z,97891.93
2022-12-15T08:21:15.030Z,97902.11
2022-12-15T08:26:18.743Z,97908.81
2022-12-15T08:31:22.597Z,97915.60
2022-12-15T08:36:24.468Z,97916.17
2022-12-15T08:41:32.465Z,97922.28
2022-12-15T08:46:34.763Z,97930.34
2022-12-15T08:51:36.871Z,97936.08
2022-12-15T08:56:38.799Z,97931.59
2022-12-15T09:01:41.808Z,97937.00
2022-12-15T09:06:44.256Z,97926.08
2022-12-15T09:11:50.362Z,97932.90
2022-12-15T09:16:52.240Z,97945.50
2022-12-15T09:21:54.120Z,97945.00
2022-12-15T09:26:56.464Z,97958.50
2022-12-15T09:31:58.271Z,97970.61
2022-12-15T09:37:00.268Z,97976.83
2022-12-15T09:42:02.232Z,97966.35
2022-12-15T09:47:17.418Z,97958.77
2022-12-15T09:52:25.164Z,97955.88
2022-12-15T09:57:54.298Z,97974.51
2022-12-15T10:03:05.118Z,97986.04
2022-12-15T10:08:07.036Z,97990.59
2022-12-15T10:13:24.905Z,97985.89
2022-12-15T10:18:42.532Z,97984.69
2022-12-15T10:23:44.422Z,97976.51
2022-12-15T10:29:02.464Z,97969.85
2022-12-15T10:34:18.992Z,97956.40
2022-12-15T10:39:21.853Z,97956.16
2022-12-15T10:44:31.857Z,97960.90
2022-12-15T10:49:34.235Z,97961.15
2022-12-15T10:54:43.621Z,97962.98
2022-12-15T10:59:45.436Z,97965.41
2022-12-15T11:05:01.275Z,97971.80
2022-12-15T11:10:19.941Z,97981.92
2022-12-15T11:15:21.672Z,97996.15
2022-12-15T11:20:31.761Z,97990.67
2022-12-15T11:25:42.158Z,97998.27
2022-12-15T11:30:52.342Z,97996.27
2022-12-15T11:36:22.522Z,98012.90
2022-12-15T11:41:42.656Z,98010.34
2022-12-15T11:46:55.110Z,98006.50
2022-12-15T11:52:23.876Z,98021.46
2022-12-15T11:57:25.568Z,98029.59
2022-12-15T12:02:43.871Z,98031.86
2022-12-15T12:08:01.031Z,98026.98
2022-12-15T12:13:14.840Z,98031.58
2022-12-15T12:18:31.325Z,98016.01
2022-12-15T12:23:50.378Z,98011.34
2022-12-15T12:29:04.165Z,98010.42
2022-12-15T12:34:14.195Z,98012.87
2022-12-15T12:39:23.207Z,98019.89
2022-12-15T12:44:39.703Z,98029.46
2022-12-15T12:49:50.261Z,98030.41
2022-12-15T12:54:57.758Z,98034.14
2022-12-15T13:00:12.325Z,98023.32
2022-12-15T13:05:30.916Z,98014.68
2022-12-15T13:10:41.806Z,98015.58
2022-12-15T13:15:49.152Z,98014.71
2022-12-15T13:20:58.020Z,98015.20
2022-12-15T13:26:00.860Z,98016.75
2022-12-15T13:31:18.785Z,98014.84
2022-12-15T13:36:39.710Z,98028.71
2022-12-15T13:42:15.399Z,98045.45
2022-12-15T13:47:18.840Z,98039.89
2022-12-15T13:52:38.100Z,98051.77
2022-12-15T13:57:56.858Z,98069.20
2022-12-15T14:03:12.260Z,98090.66
2022-12-15T14:08:17.125Z,98087.34
2022-12-15T14:13:21.529Z,98089.30
2022-12-15T14:18:23.427Z,98094.39
2022-12-15T14:23:29.995Z,98116.33
2022-12-15T14:28:37.157Z,98131.58
2022-12-15T14:33:42.092Z,98115.66
2022-12-15T14:39:06.444Z,98115.64
2022-12-15T14:44:37.438Z,98123.41
2022-12-15T14:49:42.761Z,98134.91
2022-12-15T15:00:30.506Z,98139.74
2022-12-15T15:05:33.173Z,98136.65
2022-12-15T15:10:35.057Z,98132.33
2022-12-15T15:15:36.870Z,98142.14
2022-12-15T15:20:38.755Z,98146.64
2022-12-15T15:25:49.072Z,98147.92
2022-12-15T15:30:52.301Z,98155.31
2022-12-15T15:36:00.755Z,98153.73
2022-12-15T15:41:17.921Z,98139.16
2022-12-15T15:46:22.793Z,98139.49
2022-12-15T15:51:26.267Z,98129.14
2022-12-15T15:56:30.873Z,98119.23
2022-12-15T16:01:32.891Z,98101.15
2022-12-15T16:06:36.327Z,98090.41
2022-12-15T16:11:38.263Z,98080.45
2022-12-15T16:16:40.268Z,98082.83
2022-12-15T16:21:43.015Z,98093.20
2022-12-15T16:26:48.632Z,98098.91
2022-12-15T16:31:50.601Z,98106.79
2022-12-15T16:36:52.560Z,98121.20
2022-12-15T16:41:56.230Z,98120.55
2022-12-15T16:46:58.899Z,98114.17
2022-12-15T16:52:01.164Z,98107.46
2022-12-15T16:57:03.754Z,98122.95
2022-12-15T17:02:37.504Z,98124.98
2022-12-15T17:07:42.020Z,98128.77
2022-12-15T17:12:44.929Z,98122.84
2022-12-15T17:17:47.084Z,98122.58
2022-12-15T17:22:53.385Z,98126.85
2022-12-15T17:27:56.381Z,98129.16
2022-12-15T17:32:58.664Z,98114.69
2022-12-15T17:38:00.611Z,98115.33
2022-12-15T17:43:02.379Z,98116.46
2022-12-15T17:48:05.569Z,98111.94
2022-12-15T17:53:10.138Z,98107.98
2022-12-15T17:58:22.047Z,98117.84
2022-12-15T18:03:24.451Z,98125.77
2022-12-15T18:08:28.179Z,98129.17
2022-12-15T18:13:35.290Z,98123.06
2022-12-15T18:18:39.816Z,98130.79
2022-12-15T18:23:42.134Z,98136.04
2022-12-15T18:28:44.334Z,98140.27
2022-12-15T18:33:46.466Z,98139.66
2022-12-15T18:38:48.651Z,98140.39
2022-12-15T18:43:58.571Z,98142.48
2022-12-15T18:49:01.488Z,98138.55
2022-12-15T18:54:03.970Z,98136.58
2022-12-15T18:59:10.625Z,98133.83
2022-12-15T19:04:14.507Z,98124.70
2022-12-15T19:09:22.905Z,98116.86
2022-12-15T19:14:43.474Z,98102.69
2022-12-15T19:20:03.914Z,98100.61
2022-12-15T19:25:07.307Z,98100.92
2022-12-15T19:30:18.535Z,98106.05
2022-12-15T19:35:20.707Z,98106.27
2022-12-15T19:40:30.472Z,98117.67
2022-12-15T19:45:34.098Z,98120.05
2022-12-15T19:50:37.724Z,98115.00
2022-12-15T19:55:40.614Z,98121.79
2022-12-15T20:00:42.499Z,98121.80
2022-12-15T20:05:46.795Z,98119.56
2022-12-15T20:10:49.845Z,98119.30
2022-12-15T20:15:51.773Z,98099.28
2022-12-15T20:20:53.741Z,98093.69
2022-12-15T20:25:56.366Z,98091.17
2022-12-15T20:30:58.871Z,98081.91
2022-12-15T20:36:00.684Z,98079.65
2022-12-15T20:41:04.274Z,98073.48
2022-12-15T20:46:11.205Z,98069.83
2022-12-15T20:51:20.796Z,98066.84
2022-12-15T20:56:23.934Z,98059.83
2022-12-15T21:01:31.808Z,98057.63
2022-12-15T21:06:33.736Z,98055.30
2022-12-15T21:11:35.530Z,98046.30
2022-12-15T21:16:37.305Z,98045.74
2022-12-15T21:21:44.319Z,98042.80
2022-12-15T21:26:46.768Z,98032.98
2022-12-15T21:31:49.158Z,98030.83
2022-12-15T21:36:55.043Z,98022.22
2022-12-15T21:42:04.957Z,98013.58
2022-12-15T21:47:52.049Z,98013.41
2022-12-15T21:52:54.336Z,98016.16
2022-12-15T21:57:57.570Z,98016.51
2022-12-15T22:02:59.400Z,98008.20
2022-12-15T22:08:13.084Z,98004.20
2022-12-15T22:13:21.212Z,98003.77
2022-12-15T22:18:23.703Z,98000.92
2022-12-15T22:23:25.488Z,97991.05
2022-12-15T22:28:28.560Z,97982.86
2022-12-15T22:33:31.662Z,97959.48
2022-12-15T22:38:33.793Z,97951.96
2022-12-15T22:43:41.676Z,97952.17
2022-12-15T22:48:51.926Z,97942.81
2022-12-15T22:53:53.702Z,97945.16
2022-12-15T22:59:05.836Z,97946.14
2022-12-15T23:04:07.705Z,97942.88
2022-12-15T23:09:10.120Z,97935.83
2022-12-15T23:14:18.043Z,97931.93
2022-12-15T23:19:28.773Z,97931.14
2022-12-15T23:24:31.363Z,97910.46
2022-12-15T23:29:33.077Z,97898.13
2022-12-15T23:34:34.933Z,97892.09
2022-12-15T23:39:36.667Z,97895.98
2022-12-15T23:44:38.620Z,97892.55
2022-12-15T23:49:40.437Z,97896.05
2022-12-15T23:54:42.210Z,97908.85
2022-12-15T23:59:44.218Z,97907.52
